Aérodrome :
LOGIN :

S'inscrire | Disclaimer

   EN    FR    IT 

 










Légende :    VFR   VFR Marginal   IFR   IFR Intensif   IFR Très Intensif
Visi : 
Plafond : 
>= 8 km
>= 3000ft
5 à 8 km
1000 à 3000 ft
1500m à 5 km
500 à 1000 ft
800 à 1500m
200 à 500 ft
< 800m
< 200 ft
Symboles :   Orages  Brouillard  Fortes neiges  Fortes précipitations  Vent > 20 kt
SIGMETs :   Divers  Orages  Givrage  Turbulence  Onde Orograph.  Cendres Volcan.







- Altitude de l'aérodrome : 236 ft
- Code IATA : MMX


ESMS - Malmö Sturup

DERNIER METAR :
  • 292050Z 00000KT 9999 BKN046 03/02 Q1021

METARs EXPIRÉS :
  • 292020Z 05003KT 9999 SCT041 BKN051 03/02 Q1021
  • 291950Z VRB03KT 9999 SCT035 BKN051 OVC062 03/02 Q1021
  • 291920Z 09007KT 9999 FEW025 SCT032 OVC043 04/02 Q1021
  • 291850Z 11006KT 9999 FEW016 OVC029 04/02 Q1021
  • 291820Z 11010KT 7000 RA SCT005 BKN013 OVC017 04/02 Q1020

TAF TAF ESMS
Valide du 29 à 18h jusqu'au 30 à 18h UTC


291707Z 2918/3018 VRB05KT 9999 SCT030
TEMPO 2918/2919 SHRA SCT020CB
PROB40 2923/3006 0300 FG
BECMG 3007/3010 15012KT
Pas de NOTAMs connus pour ce terrain.



MET'MAP, la Météo Aéronautique d'un coup d'oeil ! - Copyright ORBIFLY Décembre 2007 - Disclaimer

ORBIFLY MET'MAP TEAM :

Programmation & Développement : Alexandra Zaïnal
Conception & Développement : Baudouin d'Aumeries
Co-Programmation & Développement : Marc-Olivier Méhu
Soutien technique & logistique : Manuel Goepfert

Contact : metmap@orbifly.com




SOURCES & CREDITS :

   NOAA